createdAt,value
2022-09-01T00:00:55.278Z,20.73
2022-09-01T00:02:58.411Z,20.73
2022-09-01T00:05:02.575Z,20.71
2022-09-01T00:07:08.424Z,20.68
2022-09-01T00:09:18.175Z,20.65
2022-09-01T00:11:22.454Z,20.60
2022-09-01T00:13:25.145Z,20.54
2022-09-01T00:15:27.914Z,20.51
2022-09-01T00:17:31.487Z,20.52
2022-09-01T00:19:36.666Z,20.46
2022-09-01T00:21:43.145Z,20.39
2022-09-01T00:23:45.958Z,20.28
2022-09-01T00:25:48.682Z,20.23
2022-09-01T00:27:51.896Z,20.19
2022-09-01T00:29:54.714Z,20.12
2022-09-01T00:31:57.447Z,20.05
2022-09-01T00:34:01.245Z,20.02
2022-09-01T00:36:05.777Z,19.98
2022-09-01T00:38:08.487Z,19.91
2022-09-01T00:40:13.462Z,19.88
2022-09-01T00:42:16.353Z,19.88
2022-09-01T00:44:27.095Z,19.88
2022-09-01T00:46:49.963Z,19.82
2022-09-01T00:49:10.753Z,19.75
2022-09-01T00:51:13.787Z,19.72
2022-09-01T00:53:16.512Z,19.68
2022-09-01T00:55:27.222Z,19.54
2022-09-01T00:57:30.406Z,19.58
2022-09-01T00:59:33.356Z,19.56
2022-09-01T01:01:37.108Z,19.52
2022-09-01T01:03:42.571Z,19.49
2022-09-01T01:05:54.097Z,19.43
2022-09-01T01:07:57.330Z,19.40
2022-09-01T01:10:00.088Z,19.32
2022-09-01T01:12:05.694Z,19.29
2022-09-01T01:14:12.857Z,19.22
2022-09-01T01:16:16.362Z,19.19
2022-09-01T01:18:23.211Z,19.17
2022-09-01T01:20:50.720Z,19.14
2022-09-01T01:23:14.086Z,19.05
2022-09-01T01:25:19.218Z,18.99
2022-09-01T01:27:22.323Z,18.98
2022-09-01T01:29:25.205Z,18.94
2022-09-01T01:31:27.845Z,18.91
2022-09-01T01:33:41.580Z,18.84
2022-09-01T01:35:47.228Z,18.79
2022-09-01T01:37:50.735Z,18.73
2022-09-01T01:39:53.604Z,18.71
2022-09-01T01:41:59.009Z,18.66
2022-09-01T01:44:04.504Z,18.63
2022-09-01T01:46:09.269Z,18.55
2022-09-01T01:48:12.911Z,18.52
2022-09-01T01:50:15.958Z,18.48
2022-09-01T01:52:20.997Z,18.47
2022-09-01T01:54:31.540Z,18.42
2022-09-01T01:56:39.946Z,18.38
2022-09-01T01:58:42.782Z,18.34
2022-09-01T02:00:47.775Z,18.32
2022-09-01T02:02:54.785Z,18.28
2022-09-01T02:04:58.058Z,18.26
2022-09-01T02:07:00.915Z,18.25
2022-09-01T02:09:04.682Z,18.22
2022-09-01T02:11:08.532Z,18.17
2022-09-01T02:13:16.663Z,18.13
2022-09-01T02:15:20.315Z,18.09
2022-09-01T02:17:23.727Z,18.04
2022-09-01T02:19:27.649Z,18.01
2022-09-01T02:21:30.337Z,18.00
2022-09-01T02:23:33.270Z,17.95
2022-09-01T02:25:45.857Z,17.95
2022-09-01T02:27:56.754Z,17.94
2022-09-01T02:29:59.508Z,17.95
2022-09-01T02:32:02.316Z,17.88
2022-09-01T02:34:10.899Z,17.91
2022-09-01T02:36:17.569Z,17.89
2022-09-01T02:38:21.274Z,17.85
2022-09-01T02:40:23.987Z,17.84
2022-09-01T02:42:29.971Z,17.82
2022-09-01T02:44:32.900Z,17.83
2022-09-01T02:46:41.981Z,17.88
2022-09-01T02:48:46.403Z,17.96
2022-09-01T02:50:49.624Z,17.99
2022-09-01T02:52:52.905Z,18.00
2022-09-01T02:54:58.080Z,18.02
2022-09-01T02:57:01.643Z,18.04
2022-09-01T02:59:04.371Z,18.01
2022-09-01T03:01:25.118Z,18.03
2022-09-01T03:03:28.943Z,18.05
2022-09-01T03:05:34.790Z,18.09
2022-09-01T03:07:38.214Z,18.12
2022-09-01T03:09:43.180Z,18.17
2022-09-01T03:11:49.942Z,18.26
2022-09-01T03:13:53.953Z,18.32
2022-09-01T03:15:57.399Z,18.44
2022-09-01T03:18:01.193Z,18.50
2022-09-01T03:20:04.135Z,18.49
2022-09-01T03:22:06.878Z,18.51
2022-09-01T03:24:14.964Z,18.48
2022-09-01T03:26:21.405Z,18.48
2022-09-01T03:28:25.348Z,18.44
2022-09-01T03:30:30.406Z,18.46
2022-09-01T03:32:33.200Z,18.37
2022-09-01T03:34:37.182Z,18.37
2022-09-01T03:36:40.265Z,18.34
2022-09-01T03:38:44.403Z,18.35
2022-09-01T03:40:47.898Z,18.41
2022-09-01T03:42:53.274Z,18.48
2022-09-01T03:44:56.998Z,18.50
2022-09-01T03:47:01.674Z,18.57
2022-09-01T03:49:08.029Z,18.62
2022-09-01T03:51:12.221Z,18.67
2022-09-01T03:53:23.111Z,18.65
2022-09-01T03:55:30.217Z,18.63
2022-09-01T03:57:34.664Z,18.63
2022-09-01T03:59:45.068Z,18.55
2022-09-01T04:01:47.826Z,18.46
2022-09-01T04:03:52.491Z,18.46
2022-09-01T04:05:55.426Z,18.50
2022-09-01T04:08:04.146Z,18.52
2022-09-01T04:10:11.833Z,18.52
2022-09-01T04:12:16.233Z,18.56
2022-09-01T04:14:19.555Z,18.62
2022-09-01T04:16:42.393Z,18.65
2022-09-01T04:18:51.332Z,18.69
2022-09-01T04:20:57.146Z,18.70
2022-09-01T04:23:00.169Z,18.77
2022-09-01T04:25:02.949Z,18.80
2022-09-01T04:27:07.847Z,18.81
2022-09-01T04:29:13.066Z,18.82
2022-09-01T04:31:21.035Z,18.90
2022-09-01T04:33:26.060Z,18.92
2022-09-01T04:35:37.674Z,18.96
2022-09-01T04:37:48.802Z,18.99
2022-09-01T04:39:57.107Z,19.03
2022-09-01T04:42:00.354Z,19.04
2022-09-01T04:44:07.387Z,19.09
2022-09-01T04:46:11.668Z,19.13
2022-09-01T04:48:15.282Z,19.16
2022-09-01T04:50:18.700Z,19.20
2022-09-01T04:52:21.301Z,19.26
2022-09-01T04:54:24.683Z,19.31
2022-09-01T04:56:28.879Z,19.32
2022-09-01T04:58:34.352Z,19.35
2022-09-01T05:00:37.566Z,19.38
2022-09-01T05:02:40.780Z,19.39
2022-09-01T05:04:46.668Z,19.43
2022-09-01T05:07:01.303Z,19.47
2022-09-01T05:09:04.130Z,19.54
2022-09-01T05:11:09.678Z,19.64
2022-09-01T05:13:14.553Z,19.69
2022-09-01T05:15:17.440Z,19.73
2022-09-01T05:17:20.149Z,19.78
2022-09-01T05:19:29.069Z,19.83
2022-09-01T05:21:31.880Z,19.89
2022-09-01T05:23:36.622Z,19.93
2022-09-01T05:25:42.333Z,19.99
2022-09-01T05:27:49.928Z,20.00
2022-09-01T05:29:54.414Z,19.97
2022-09-01T05:31:59.015Z,19.95
2022-09-01T05:34:03.487Z,19.94
2022-09-01T05:36:08.811Z,19.90
2022-09-01T05:38:14.237Z,19.95
2022-09-01T05:40:17.566Z,20.05
2022-09-01T05:42:20.251Z,20.13
2022-09-01T05:44:23.152Z,20.16
2022-09-01T05:46:28.558Z,20.21
2022-09-01T05:48:31.887Z,20.24
2022-09-01T05:50:34.564Z,20.26
2022-09-01T05:52:39.599Z,20.20
2022-09-01T05:54:44.336Z,20.19
2022-09-01T05:56:47.468Z,20.20
2022-09-01T06:01:22.304Z,20.15
2022-09-01T06:03:26.497Z,20.15
2022-09-01T06:05:32.253Z,20.14
2022-09-01T06:07:39.708Z,20.19
2022-09-01T06:09:46.953Z,20.25
2022-09-01T06:11:50.301Z,20.21
2022-09-01T06:13:57.180Z,20.26
2022-09-01T06:16:02.296Z,20.26
2022-09-01T06:18:07.206Z,20.30
2022-09-01T06:20:11.142Z,20.30
2022-09-01T06:22:14.354Z,20.25
2022-09-01T06:24:18.264Z,20.24
2022-09-01T06:26:29.062Z,20.25
2022-09-01T06:28:31.805Z,20.28
2022-09-01T06:30:36.699Z,20.36
2022-09-01T06:32:41.047Z,20.42
2022-09-01T06:34:50.596Z,20.47
2022-09-01T06:36:54.097Z,20.53
2022-09-01T06:38:56.770Z,20.49
2022-09-01T06:41:04.619Z,20.55
2022-09-01T06:43:10.176Z,20.60
2022-09-01T06:45:15.195Z,20.59
2022-09-01T06:47:17.977Z,20.59
2022-09-01T06:49:23.770Z,20.69
2022-09-01T06:51:32.096Z,20.75
2022-09-01T06:53:35.605Z,20.74
2022-09-01T06:55:39.115Z,20.78
2022-09-01T07:00:21.294Z,20.87
2022-09-01T07:02:26.974Z,20.97
2022-09-01T07:04:31.626Z,20.95
2022-09-01T07:16:33.191Z,20.89
2022-09-01T07:18:38.174Z,20.94
2022-09-01T07:23:06.491Z,20.96
2022-09-01T07:25:12.767Z,20.98
2022-09-01T07:29:57.964Z,21.07
2022-09-01T07:34:42.159Z,21.23
2022-09-01T07:42:58.904Z,20.99
2022-09-01T07:44:05.583Z,21.58
2022-09-01T07:53:25.623Z,21.88
2022-09-01T07:55:29.284Z,21.94
2022-09-01T07:57:32.265Z,21.98
2022-09-01T07:59:35.641Z,22.07
2022-09-01T08:01:38.368Z,22.14
2022-09-01T08:03:41.823Z,22.06
2022-09-01T08:05:45.018Z,22.12
2022-09-01T08:07:52.396Z,22.27
2022-09-01T08:09:56.114Z,22.44
2022-09-01T08:12:05.366Z,22.50
2022-09-01T08:14:10.194Z,22.53
2022-09-01T08:16:18.102Z,22.45
2022-09-01T08:18:21.841Z,22.39
2022-09-01T08:20:24.757Z,22.50
2022-09-01T08:22:28.123Z,22.59
2022-09-01T08:24:31.194Z,22.51
2022-09-01T08:26:34.093Z,22.49
2022-09-01T08:28:36.875Z,22.50
2022-09-01T08:30:41.997Z,22.34
2022-09-01T08:32:55.028Z,22.14
2022-09-01T08:34:57.864Z,22.08
2022-09-01T08:37:00.997Z,22.03
2022-09-01T08:39:04.148Z,22.08
2022-09-01T08:41:35.269Z,22.07
2022-09-01T08:43:40.917Z,22.18
2022-09-01T08:45:55.400Z,22.31
2022-09-01T08:49:16.052Z,22.41
2022-09-01T08:50:30.124Z,22.47
2022-09-01T08:52:42.786Z,22.56
2022-09-01T08:54:50.957Z,22.67
2022-09-01T08:57:01.209Z,22.69
2022-09-01T08:59:06.785Z,22.65
2022-09-01T09:01:21.992Z,22.62
2022-09-01T09:04:03.293Z,22.46
2022-09-01T09:06:17.469Z,22.17
2022-09-01T09:08:33.965Z,22.08
2022-09-01T09:10:55.944Z,22.20
2022-09-01T09:13:11.417Z,22.42
2022-09-01T09:15:40.244Z,22.64
2022-09-01T09:18:00.405Z,22.82
2022-09-01T09:20:05.249Z,22.86
2022-09-01T09:22:13.859Z,22.91
2022-09-01T09:24:47.516Z,22.87
2022-09-01T09:26:59.153Z,22.90
2022-09-01T09:29:02.225Z,22.98
2022-09-01T09:31:50.459Z,23.00
2022-09-01T09:33:57.079Z,23.09
2022-09-01T09:36:22.186Z,23.11
2022-09-01T09:38:33.562Z,23.14
2022-09-01T09:41:00.033Z,23.09
2022-09-01T09:43:04.368Z,23.04
2022-09-01T09:45:22.402Z,23.13
2022-09-01T09:47:45.075Z,23.00
2022-09-01T09:49:48.946Z,23.06
2022-09-01T09:51:54.750Z,23.15
2022-09-01T09:54:15.738Z,23.26
2022-09-01T09:56:20.441Z,23.34
2022-09-01T09:58:26.948Z,23.43
2022-09-01T10:00:35.452Z,23.56
2022-09-01T10:02:42.091Z,23.64
2022-09-01T10:04:45.075Z,23.75
2022-09-01T10:06:48.049Z,23.75
2022-09-01T10:08:50.902Z,23.82
2022-09-01T10:10:58.153Z,23.87
2022-09-01T10:13:02.487Z,23.94
2022-09-01T10:15:14.152Z,24.05
2022-09-01T10:17:33.070Z,24.14
2022-09-01T10:19:42.379Z,24.29
2022-09-01T10:21:46.154Z,24.45
2022-09-01T10:23:49.107Z,24.43
2022-09-01T10:25:58.179Z,24.43
2022-09-01T10:28:12.184Z,24.44
2022-09-01T10:30:20.888Z,24.52
2022-09-01T10:32:50.787Z,24.53
2022-09-01T10:34:59.809Z,24.60
2022-09-01T10:37:03.956Z,24.65
2022-09-01T10:39:11.861Z,24.73
2022-09-01T10:41:44.692Z,24.94
2022-09-01T10:43:50.164Z,25.16
2022-09-01T10:45:58.721Z,25.37
2022-09-01T10:48:30.851Z,25.42
2022-09-01T10:50:36.093Z,25.25
2022-09-01T10:52:43.851Z,25.08
2022-09-01T10:54:52.759Z,25.11
2022-09-01T10:57:45.211Z,25.03
2022-09-01T10:59:56.040Z,24.86
2022-09-01T11:02:35.912Z,24.65
2022-09-01T11:04:47.297Z,24.37
2022-09-01T11:09:22.127Z,24.34
2022-09-01T11:11:39.835Z,24.56
2022-09-01T11:13:50.180Z,24.93
2022-09-01T11:15:53.922Z,25.20
2022-09-01T11:18:00.032Z,25.45
2022-09-01T11:20:11.325Z,25.69
2022-09-01T11:22:14.014Z,25.82
2022-09-01T11:24:38.506Z,25.96
2022-09-01T11:26:48.963Z,26.14
2022-09-01T11:28:51.744Z,26.17
2022-09-01T11:31:06.549Z,26.14
2022-09-01T11:33:13.828Z,26.11
2022-09-01T11:35:21.952Z,26.02
2022-09-01T11:37:27.775Z,26.12
2022-09-01T11:39:39.919Z,26.21
2022-09-01T11:42:04.260Z,26.24
2022-09-01T11:44:43.658Z,26.29
2022-09-01T11:46:46.530Z,26.48
2022-09-01T11:48:52.076Z,26.60
2022-09-01T11:51:01.950Z,26.65
2022-09-01T11:53:09.110Z,26.62
2022-09-01T11:55:11.912Z,26.58
2022-09-01T11:57:41.432Z,26.66
2022-09-01T11:59:44.248Z,26.62
2022-09-01T12:01:46.949Z,26.76
2022-09-01T12:03:51.491Z,26.89
2022-09-01T12:06:02.043Z,26.91
2022-09-01T12:08:16.047Z,27.08
2022-09-01T12:10:26.551Z,27.20
2022-09-01T12:12:33.776Z,27.26
2022-09-01T12:15:02.106Z,27.30
2022-09-01T12:17:05.700Z,27.46
2022-09-01T12:19:08.830Z,27.52
2022-09-01T12:21:21.146Z,27.56
2022-09-01T12:23:40.454Z,27.54
2022-09-01T12:25:43.291Z,27.56
2022-09-01T12:27:46.301Z,27.40
2022-09-01T12:29:50.724Z,27.34
2022-09-01T12:31:54.724Z,27.48
2022-09-01T12:33:57.650Z,27.55
2022-09-01T12:36:25.558Z,27.75
2022-09-01T12:38:30.913Z,28.07
2022-09-01T12:40:36.146Z,28.13
2022-09-01T12:42:49.142Z,28.18
2022-09-01T12:45:04.144Z,28.22
2022-09-01T12:47:13.714Z,28.16
2022-09-01T12:49:34.968Z,28.32
2022-09-01T12:51:37.725Z,28.37
2022-09-01T12:53:42.534Z,28.35
2022-09-01T12:56:14.558Z,28.51
2022-09-01T12:58:25.979Z,28.64
2022-09-01T13:00:30.541Z,28.82
2022-09-01T13:02:37.622Z,28.91
2022-09-01T13:04:42.305Z,28.62
2022-09-01T13:06:44.999Z,28.19
2022-09-01T13:08:47.652Z,27.87
2022-09-01T13:10:56.718Z,27.54
2022-09-01T13:12:59.319Z,27.39
2022-09-01T13:15:02.266Z,27.48
2022-09-01T13:17:14.035Z,27.41
2022-09-01T13:19:26.513Z,27.63
2022-09-01T13:21:31.602Z,28.20
2022-09-01T13:23:34.771Z,28.28
2022-09-01T13:25:37.371Z,28.22
2022-09-01T13:27:45.006Z,28.33
2022-09-01T13:29:51.592Z,28.30
2022-09-01T13:34:24.026Z,28.00
2022-09-01T13:36:46.175Z,27.94
2022-09-01T13:39:02.104Z,27.72
2022-09-01T13:41:04.785Z,27.62
2022-09-01T13:43:07.646Z,27.62
2022-09-01T13:45:15.144Z,27.46
2022-09-01T13:47:35.417Z,27.35
2022-09-01T13:49:44.444Z,27.11
2022-09-01T13:52:06.299Z,26.98
2022-09-01T13:54:09.159Z,26.86
2022-09-01T13:56:11.930Z,26.69
2022-09-01T13:58:15.194Z,26.52
2022-09-01T14:00:24.535Z,26.24
2022-09-01T14:02:27.472Z,26.09
2022-09-01T14:04:30.197Z,25.88
2022-09-01T14:06:33.826Z,25.83
2022-09-01T14:08:36.768Z,25.60
2022-09-01T14:10:43.400Z,25.29
2022-09-01T14:12:46.814Z,25.27
2022-09-01T14:17:12.350Z,24.84
2022-09-01T14:19:16.067Z,24.76
2022-09-01T14:21:19.240Z,24.86
2022-09-01T14:23:21.869Z,25.34
2022-09-01T14:25:25.505Z,25.76
2022-09-01T14:27:28.538Z,25.82
2022-09-01T14:29:31.167Z,25.82
2022-09-01T14:31:36.378Z,25.92
2022-09-01T14:33:40.787Z,26.11
2022-09-01T14:35:47.786Z,26.02
2022-09-01T14:37:51.348Z,25.74
2022-09-01T14:39:56.487Z,25.38
2022-09-01T14:41:59.078Z,25.11
2022-09-01T14:44:03.465Z,24.96
2022-09-01T14:46:10.501Z,24.73
2022-09-01T14:48:15.566Z,24.59
2022-09-01T14:50:22.623Z,24.38
2022-09-01T14:52:31.550Z,24.25
2022-09-01T14:54:35.423Z,24.13
2022-09-01T14:56:38.042Z,23.90
2022-09-01T14:58:42.501Z,23.93
2022-09-01T15:00:45.370Z,24.19
2022-09-01T15:02:48.413Z,24.15
2022-09-01T15:04:51.986Z,24.22
2022-09-01T15:06:55.308Z,24.37
2022-09-01T15:08:57.945Z,24.42
2022-09-01T15:11:01.700Z,24.40
2022-09-01T15:13:04.809Z,24.18
2022-09-01T15:15:08.995Z,23.98
2022-09-01T15:17:11.906Z,23.79
2022-09-01T15:19:15.448Z,23.52
2022-09-01T15:21:33.373Z,23.28
2022-09-01T15:23:36.054Z,23.17
2022-09-01T15:25:38.895Z,23.14
2022-09-01T15:27:42.091Z,22.96
2022-09-01T15:29:49.226Z,22.87
2022-09-01T15:31:51.879Z,22.79
2022-09-01T15:33:56.935Z,22.70
2022-09-01T15:35:59.659Z,22.60
2022-09-01T15:38:02.388Z,22.47
2022-09-01T15:40:08.920Z,22.36
2022-09-01T15:42:17.346Z,22.38
2022-09-01T15:44:20.349Z,22.32
2022-09-01T15:46:32.013Z,22.29
2022-09-01T15:48:34.955Z,22.28
2022-09-01T15:50:37.703Z,22.10
2022-09-01T15:53:08.781Z,22.00
2022-09-01T15:55:11.564Z,21.90
2022-09-01T15:57:14.413Z,21.79
2022-09-01T15:59:17.150Z,21.70
2022-09-01T16:01:22.578Z,21.64
2022-09-01T16:03:25.278Z,21.45
2022-09-01T16:05:29.757Z,21.40
2022-09-01T16:07:32.482Z,21.31
2022-09-01T16:09:37.062Z,21.30
2022-09-01T16:11:41.770Z,21.22
2022-09-01T16:13:44.692Z,21.11
2022-09-01T16:15:59.098Z,21.13
2022-09-01T16:18:31.514Z,21.09
2022-09-01T16:20:41.896Z,21.06
2022-09-01T16:22:55.422Z,21.03
2022-09-01T16:25:07.168Z,20.99
2022-09-01T16:27:15.000Z,20.95
2022-09-01T16:29:56.847Z,20.88
2022-09-01T16:31:59.489Z,20.80
2022-09-01T16:34:15.002Z,20.74
2022-09-01T16:36:37.552Z,20.66
2022-09-01T16:39:01.311Z,20.64
2022-09-01T16:41:17.182Z,20.54
2022-09-01T16:43:36.793Z,20.44
2022-09-01T16:46:19.672Z,20.30
2022-09-01T16:48:49.511Z,20.25
2022-09-01T16:51:04.747Z,20.17
2022-09-01T16:53:31.594Z,20.17
2022-09-01T16:55:57.677Z,20.16
2022-09-01T16:58:04.290Z,20.18
2022-09-01T17:00:13.187Z,20.13
2022-09-01T17:02:36.158Z,20.05
2022-09-01T17:04:47.612Z,20.02
2022-09-01T17:07:24.191Z,19.95
2022-09-01T17:09:46.557Z,19.82
2022-09-01T17:11:53.791Z,19.76
2022-09-01T17:13:56.833Z,19.67
2022-09-01T17:16:08.602Z,19.58
2022-09-01T17:18:23.435Z,19.56
2022-09-01T17:20:31.073Z,19.46
2022-09-01T17:22:36.878Z,19.41
2022-09-01T17:24:43.180Z,19.40
2022-09-01T17:26:48.067Z,19.32
2022-09-01T17:29:27.213Z,19.32
2022-09-01T17:31:58.229Z,19.24
2022-09-01T17:34:46.458Z,19.17
2022-09-01T17:37:39.474Z,19.03
2022-09-01T17:39:50.371Z,19.00
2022-09-01T17:42:11.740Z,18.96
2022-09-01T17:44:43.392Z,18.90
2022-09-01T17:47:06.059Z,18.87
2022-09-01T17:49:30.696Z,18.80
2022-09-01T17:52:14.134Z,18.71
2022-09-01T17:54:29.752Z,18.76
2022-09-01T17:57:05.041Z,18.75
2022-09-01T17:59:36.594Z,18.69
2022-09-01T18:01:47.244Z,18.69
2022-09-01T18:04:11.962Z,18.67
2022-09-01T18:06:44.154Z,18.67
2022-09-01T18:08:56.434Z,18.64
2022-09-01T18:11:05.255Z,18.64
2022-09-01T18:13:30.824Z,18.63
2022-09-01T18:16:00.464Z,18.64
2022-09-01T18:18:17.398Z,18.61
2022-09-01T18:20:26.266Z,18.54
2022-09-01T18:22:36.535Z,18.49
2022-09-01T18:24:58.411Z,18.47
2022-09-01T18:27:02.070Z,18.41
2022-09-01T18:29:06.065Z,18.42
2022-09-01T18:31:21.555Z,18.40
2022-09-01T18:33:55.120Z,18.40
2022-09-01T18:36:16.591Z,18.40
2022-09-01T18:38:37.700Z,18.35
2022-09-01T18:41:11.148Z,18.28
2022-09-01T18:43:14.812Z,18.27
2022-09-01T18:45:29.775Z,18.23
2022-09-01T18:47:44.319Z,18.21
2022-09-01T18:49:59.923Z,18.21
2022-09-01T18:52:39.910Z,18.18
2022-09-01T18:55:10.711Z,18.06
2022-09-01T18:57:19.540Z,18.02
2022-09-01T18:59:53.280Z,18.00
2022-09-01T19:02:25.190Z,17.95
2022-09-01T19:04:38.671Z,17.91
2022-09-01T19:06:47.364Z,17.89
2022-09-01T19:09:14.966Z,17.86
2022-09-01T19:11:34.936Z,17.81
2022-09-01T19:13:53.638Z,17.82
2022-09-01T19:16:29.194Z,17.81
2022-09-01T19:18:47.396Z,17.73
2022-09-01T19:20:51.071Z,17.68
2022-09-01T19:23:16.667Z,17.68
2022-09-01T19:25:34.504Z,17.65
2022-09-01T19:27:38.022Z,17.63
2022-09-01T19:29:56.285Z,17.56
2022-09-01T19:32:06.348Z,17.51
2022-09-01T19:34:27.543Z,17.46
2022-09-01T19:36:46.413Z,17.44
2022-09-01T19:38:50.726Z,17.41
2022-09-01T19:41:23.856Z,17.41
2022-09-01T19:43:30.637Z,17.37
2022-09-01T19:45:57.058Z,17.37
2022-09-01T19:48:23.350Z,17.30
2022-09-01T19:50:31.482Z,17.28
2022-09-01T19:52:42.905Z,17.22
2022-09-01T19:55:00.020Z,17.19
2022-09-01T19:57:25.255Z,17.16
2022-09-01T20:00:10.235Z,17.14
2022-09-01T20:03:02.202Z,17.07
2022-09-01T20:05:25.113Z,17.06
2022-09-01T20:07:36.528Z,17.05
2022-09-01T20:09:46.189Z,17.01
2022-09-01T20:12:09.179Z,17.01
2022-09-01T20:14:33.241Z,17.01
2022-09-01T20:16:42.560Z,16.97
2022-09-01T20:18:50.128Z,16.99
2022-09-01T20:21:00.173Z,16.97
2022-09-01T20:23:24.417Z,16.97
2022-09-01T20:25:33.176Z,16.97
2022-09-01T20:27:45.484Z,17.00
2022-09-01T20:29:59.053Z,16.99
2022-09-01T20:32:04.184Z,17.00
2022-09-01T20:34:29.431Z,17.03
2022-09-01T20:36:41.647Z,16.99
2022-09-01T20:39:05.492Z,16.93
2022-09-01T20:41:38.837Z,16.89
2022-09-01T20:43:45.802Z,16.84
2022-09-01T20:45:48.815Z,16.82
2022-09-01T20:47:53.473Z,16.80
2022-09-01T20:49:59.988Z,16.73
2022-09-01T20:52:13.463Z,16.69
2022-09-01T20:54:31.934Z,16.65
2022-09-01T20:57:07.152Z,16.60
2022-09-01T20:59:33.590Z,16.54
2022-09-01T21:02:00.887Z,16.46
2022-09-01T21:04:29.669Z,16.41
2022-09-01T21:07:14.053Z,16.36
2022-09-01T21:09:19.394Z,16.29
2022-09-01T21:11:29.611Z,16.26
2022-09-01T21:14:06.204Z,16.18
2022-09-01T21:16:26.521Z,16.13
2022-09-01T21:18:58.334Z,16.12
2022-09-01T21:21:19.337Z,16.10
2022-09-01T21:23:22.136Z,16.12
2022-09-01T21:25:24.881Z,16.15
2022-09-01T21:27:44.194Z,16.13
2022-09-01T21:29:55.564Z,16.12
2022-09-01T21:31:59.376Z,16.15
2022-09-01T21:34:02.241Z,16.17
2022-09-01T21:36:05.023Z,16.18
2022-09-01T21:38:07.886Z,16.21
2022-09-01T21:40:11.759Z,16.22
2022-09-01T21:42:14.554Z,16.27
2022-09-01T21:44:17.523Z,16.25
2022-09-01T21:46:20.740Z,16.25
2022-09-01T21:48:24.182Z,16.26
2022-09-01T21:50:27.921Z,16.30
2022-09-01T21:52:30.613Z,16.29
2022-09-01T21:54:34.480Z,16.33
2022-09-01T21:56:38.036Z,16.36
2022-09-01T21:58:40.701Z,16.34
2022-09-01T22:00:44.627Z,16.33
2022-09-01T22:02:47.376Z,16.36
2022-09-01T22:04:50.163Z,16.35
2022-09-01T22:06:53.093Z,16.33
2022-09-01T22:08:55.922Z,16.31
2022-09-01T22:10:58.598Z,16.26
2022-09-01T22:13:03.887Z,16.22
2022-09-01T22:15:09.327Z,16.19
2022-09-01T22:17:15.556Z,16.14
2022-09-01T22:19:20.131Z,16.15
2022-09-01T22:21:23.182Z,16.15
2022-09-01T22:23:25.848Z,16.18
2022-09-01T22:25:30.207Z,16.19
2022-09-01T22:27:33.035Z,16.17
2022-09-01T22:29:35.776Z,16.18
2022-09-01T22:31:39.784Z,16.20
2022-09-01T22:33:43.048Z,16.22
2022-09-01T22:35:48.538Z,16.23
2022-09-01T22:37:51.318Z,16.24
2022-09-01T22:39:54.384Z,16.27
2022-09-01T22:41:57.161Z,16.26
2022-09-01T22:44:01.546Z,16.28
2022-09-01T22:46:06.253Z,16.27
2022-09-01T22:48:09.192Z,16.27
2022-09-01T22:50:12.297Z,16.26
2022-09-01T22:52:15.215Z,16.21
2022-09-01T22:54:18.073Z,16.19
2022-09-01T22:56:24.390Z,16.16
2022-09-01T22:58:27.777Z,16.13
2022-09-01T23:00:30.581Z,16.02
2022-09-01T23:02:33.966Z,16.03
2022-09-01T23:04:38.228Z,16.01
2022-09-01T23:06:48.170Z,15.94
2022-09-01T23:08:50.926Z,15.91
2022-09-01T23:10:53.641Z,15.86
2022-09-01T23:12:56.601Z,15.84
2022-09-01T23:14:59.255Z,15.82
2022-09-01T23:17:01.940Z,15.79
2022-09-01T23:19:05.090Z,15.75
2022-09-01T23:21:09.363Z,15.70
2022-09-01T23:23:12.024Z,15.69
2022-09-01T23:25:16.839Z,15.63
2022-09-01T23:27:19.845Z,15.60
2022-09-01T23:29:22.494Z,15.57
2022-09-01T23:31:27.948Z,15.50
2022-09-01T23:33:31.114Z,15.42
2022-09-01T23:35:33.843Z,15.37
2022-09-01T23:37:36.561Z,15.30
2022-09-01T23:39:39.219Z,15.22
2022-09-01T23:41:42.214Z,15.17
2022-09-01T23:43:44.972Z,15.12
2022-09-01T23:45:51.226Z,15.06
2022-09-01T23:47:53.987Z,15.01
2022-09-01T23:49:57.823Z,14.95
2022-09-01T23:52:00.666Z,14.90
2022-09-01T23:54:03.522Z,14.82
2022-09-01T23:56:13.861Z,14.77
2022-09-01T23:58:17.925Z,14.73
